createdAt,value
2019-01-11T00:00:37.943Z,18.09
2019-01-11T00:01:38.201Z,18.12
2019-01-11T00:02:39.769Z,18.09
2019-01-11T00:03:37.701Z,18.09
2019-01-11T00:04:37.801Z,18.09
2019-01-11T00:05:37.959Z,18.11
2019-01-11T00:06:37.793Z,18.09
2019-01-11T00:07:38.009Z,18.09
2019-01-11T00:08:37.651Z,18.08
2019-01-11T00:09:37.994Z,18.08
2019-01-11T00:10:37.763Z,18.07
2019-01-11T00:11:37.851Z,18.05
2019-01-11T00:12:38.026Z,18.08
2019-01-11T00:13:38.190Z,18.04
2019-01-11T00:14:38.035Z,18.08
2019-01-11T00:15:38.035Z,18.05
2019-01-11T00:16:37.515Z,18.07
2019-01-11T00:17:37.950Z,18.04
2019-01-11T00:18:38.044Z,18.02
2019-01-11T00:19:37.712Z,18.01
2019-01-11T00:20:37.691Z,18.04
2019-01-11T00:21:37.530Z,18.02
2019-01-11T00:22:37.569Z,18.01
2019-01-11T00:23:37.664Z,18.01
2019-01-11T00:24:37.707Z,18.02
2019-01-11T00:25:37.568Z,18.01
2019-01-11T00:26:39.938Z,18
2019-01-11T00:27:37.863Z,18
2019-01-11T00:28:37.956Z,17.97
2019-01-11T00:29:37.690Z,18
2019-01-11T00:30:37.475Z,17.98
2019-01-11T00:31:37.770Z,17.98
2019-01-11T00:32:37.946Z,17.97
2019-01-11T00:33:37.648Z,17.97
2019-01-11T00:34:37.993Z,17.98
2019-01-11T00:35:37.799Z,17.98
2019-01-11T00:36:38.049Z,17.95
2019-01-11T00:37:37.589Z,17.95
2019-01-11T00:38:38.123Z,17.95
2019-01-11T00:39:37.676Z,17.97
2019-01-11T00:40:38.217Z,17.97
2019-01-11T00:41:38.213Z,17.95
2019-01-11T00:42:37.842Z,17.93
2019-01-11T00:43:37.654Z,17.93
2019-01-11T00:44:37.989Z,17.93
2019-01-11T00:45:37.973Z,17.91
2019-01-11T00:46:37.895Z,17.94
2019-01-11T00:47:37.666Z,17.94
2019-01-11T00:48:38.144Z,17.91
2019-01-11T00:49:37.731Z,17.93
2019-01-11T00:50:37.597Z,17.91
2019-01-11T00:51:37.693Z,17.93
2019-01-11T00:52:37.816Z,17.89
2019-01-11T00:53:38.192Z,17.91
2019-01-11T00:54:38.376Z,17.89
2019-01-11T00:55:37.910Z,17.88
2019-01-11T00:56:37.730Z,17.88
2019-01-11T00:57:37.811Z,17.89
2019-01-11T00:58:37.880Z,17.88
2019-01-11T00:59:38.201Z,17.88
2019-01-11T01:00:37.701Z,17.88
2019-01-11T01:01:37.771Z,17.88
2019-01-11T01:02:37.721Z,17.88
2019-01-11T01:03:37.817Z,17.85
2019-01-11T01:04:37.778Z,17.85
2019-01-11T01:05:37.829Z,17.85
2019-01-11T01:06:37.769Z,17.87
2019-01-11T01:07:37.769Z,17.85
2019-01-11T01:08:38.100Z,17.84
2019-01-11T01:09:37.572Z,17.85
2019-01-11T01:10:37.682Z,17.84
2019-01-11T01:11:37.674Z,17.82
2019-01-11T01:12:37.674Z,17.82
2019-01-11T01:13:37.900Z,17.84
2019-01-11T01:14:38.055Z,17.82
2019-01-11T01:15:37.698Z,17.85
2019-01-11T01:16:37.681Z,17.84
2019-01-11T01:17:37.817Z,17.82
2019-01-11T01:18:38.385Z,17.82
2019-01-11T01:19:37.821Z,17.82
2019-01-11T01:20:38.123Z,17.81
2019-01-11T01:21:38.074Z,17.81
2019-01-11T01:22:38.173Z,17.81
2019-01-11T01:23:38.419Z,17.82
2019-01-11T01:24:37.589Z,17.8
2019-01-11T01:25:38.795Z,17.8
2019-01-11T01:26:37.723Z,17.82
2019-01-11T01:27:37.929Z,17.78
2019-01-11T01:28:38.049Z,17.8
2019-01-11T01:29:38.067Z,17.81
2019-01-11T01:30:38.109Z,17.76
2019-01-11T01:31:37.807Z,17.81
2019-01-11T01:32:38.126Z,17.76
2019-01-11T01:33:37.804Z,17.77
2019-01-11T01:34:37.952Z,17.76
2019-01-11T01:35:38.022Z,17.76
2019-01-11T01:36:37.770Z,17.77
2019-01-11T01:37:38.466Z,17.76
2019-01-11T01:38:37.782Z,17.77
2019-01-11T01:39:38.029Z,17.76
2019-01-11T01:40:37.964Z,17.76
2019-01-11T01:41:37.613Z,17.76
2019-01-11T01:42:37.494Z,17.77
2019-01-11T01:43:37.574Z,17.74
2019-01-11T01:44:37.699Z,17.71
2019-01-11T01:45:38.055Z,17.74
2019-01-11T01:46:38.068Z,17.73
2019-01-11T01:47:37.950Z,17.74
2019-01-11T01:48:37.687Z,17.74
2019-01-11T01:49:38.092Z,17.73
2019-01-11T01:50:37.644Z,17.73
2019-01-11T01:51:39.538Z,17.71
2019-01-11T01:52:37.735Z,17.7
2019-01-11T01:53:37.872Z,17.71
2019-01-11T01:54:37.919Z,17.73
2019-01-11T01:55:38.042Z,17.73
2019-01-11T01:56:37.736Z,17.7
2019-01-11T01:57:38.151Z,17.7
2019-01-11T01:58:37.685Z,17.7
2019-01-11T01:59:37.678Z,17.68
2019-01-11T02:00:37.629Z,17.7
2019-01-11T02:01:37.820Z,17.68
2019-01-11T02:02:37.643Z,17.68
2019-01-11T02:03:38.493Z,17.7
2019-01-11T02:04:37.873Z,17.7
2019-01-11T02:05:37.854Z,17.68
2019-01-11T02:06:37.732Z,17.67
2019-01-11T02:07:38.156Z,17.67
2019-01-11T02:08:38.264Z,17.67
2019-01-11T02:09:37.876Z,17.66
2019-01-11T02:10:37.847Z,17.64
2019-01-11T02:11:37.954Z,17.67
2019-01-11T02:12:38.086Z,17.64
2019-01-11T02:13:37.756Z,17.64
2019-01-11T02:14:37.792Z,17.64
2019-01-11T02:15:37.718Z,17.66
2019-01-11T02:16:37.916Z,17.66
2019-01-11T02:17:37.729Z,17.64
2019-01-11T02:18:37.462Z,17.64
2019-01-11T02:19:38.632Z,17.6
2019-01-11T02:20:37.765Z,17.64
2019-01-11T02:21:37.504Z,17.61
2019-01-11T02:22:37.667Z,17.63
2019-01-11T02:23:38.027Z,17.63
2019-01-11T02:24:37.919Z,17.61
2019-01-11T02:25:37.845Z,17.61
2019-01-11T02:26:38.037Z,17.6
2019-01-11T02:27:37.879Z,17.6
2019-01-11T02:28:37.977Z,17.6
2019-01-11T02:29:37.939Z,17.6
2019-01-11T02:30:37.982Z,17.63
2019-01-11T02:31:37.617Z,17.6
2019-01-11T02:32:37.854Z,17.59
2019-01-11T02:33:37.982Z,17.6
2019-01-11T02:34:37.884Z,17.6
2019-01-11T02:35:39.455Z,17.6
2019-01-11T02:36:37.562Z,17.59
2019-01-11T02:37:37.784Z,17.6
2019-01-11T02:38:37.859Z,17.57
2019-01-11T02:39:37.733Z,17.57
2019-01-11T02:40:37.929Z,17.57
2019-01-11T02:41:38.085Z,17.59
2019-01-11T02:42:37.689Z,17.59
2019-01-11T02:43:37.690Z,17.56
2019-01-11T02:44:37.762Z,17.59
2019-01-11T02:45:37.756Z,17.57
2019-01-11T02:46:37.693Z,17.57
2019-01-11T02:47:38.278Z,17.56
2019-01-11T02:48:37.904Z,17.56
2019-01-11T02:49:40.683Z,17.56
2019-01-11T02:50:37.903Z,17.57
2019-01-11T02:51:37.721Z,17.54
2019-01-11T02:52:37.777Z,17.54
2019-01-11T02:53:37.654Z,17.54
2019-01-11T02:54:37.888Z,17.53
2019-01-11T02:55:38.044Z,17.54
2019-01-11T02:56:38.443Z,17.54
2019-01-11T02:57:38.013Z,17.53
2019-01-11T02:58:37.702Z,17.53
2019-01-11T02:59:38.089Z,17.5
2019-01-11T03:00:37.915Z,17.52
2019-01-11T03:01:37.776Z,17.53
2019-01-11T03:02:37.722Z,17.52
2019-01-11T03:03:37.782Z,17.53
2019-01-11T03:04:37.570Z,17.49
2019-01-11T03:05:37.575Z,17.49
2019-01-11T03:06:37.946Z,17.5
2019-01-11T03:07:38.067Z,17.5
2019-01-11T03:08:38.051Z,17.49
2019-01-11T03:09:37.934Z,17.48
2019-01-11T03:10:37.818Z,17.48
2019-01-11T03:11:37.805Z,17.49
2019-01-11T03:12:38.034Z,17.49
2019-01-11T03:13:37.946Z,17.48
2019-01-11T03:14:37.783Z,17.49
2019-01-11T03:15:37.915Z,17.5
2019-01-11T03:16:37.833Z,17.48
2019-01-11T03:17:37.597Z,17.48
2019-01-11T03:18:37.899Z,17.48
2019-01-11T03:19:38.510Z,17.46
2019-01-11T03:20:38.245Z,17.49
2019-01-11T03:21:37.608Z,17.46
2019-01-11T03:22:38.237Z,17.45
2019-01-11T03:23:37.851Z,17.46
2019-01-11T03:24:37.704Z,17.46
2019-01-11T03:25:37.479Z,17.46
2019-01-11T03:26:37.669Z,17.43
2019-01-11T03:27:37.684Z,17.45
2019-01-11T03:28:37.519Z,17.46
2019-01-11T03:29:37.731Z,17.43
2019-01-11T03:30:38.195Z,17.45
2019-01-11T03:31:37.713Z,17.43
2019-01-11T03:32:37.819Z,17.43
2019-01-11T03:33:37.983Z,17.42
2019-01-11T03:34:38.016Z,17.42
2019-01-11T03:35:37.933Z,17.42
2019-01-11T03:36:37.468Z,17.42
2019-01-11T03:37:37.818Z,17.43
2019-01-11T03:38:37.751Z,17.4
2019-01-11T03:39:37.655Z,17.43
2019-01-11T03:40:37.649Z,17.4
2019-01-11T03:41:37.610Z,17.42
2019-01-11T03:42:37.762Z,17.4
2019-01-11T03:43:37.934Z,17.42
2019-01-11T03:44:37.860Z,17.4
2019-01-11T03:45:38.013Z,17.38
2019-01-11T03:46:37.833Z,17.4
2019-01-11T03:47:38.307Z,17.39
2019-01-11T03:48:37.641Z,17.4
2019-01-11T03:49:38.018Z,17.39
2019-01-11T03:50:37.716Z,17.39
2019-01-11T03:51:37.581Z,17.38
2019-01-11T03:52:38.308Z,17.4
2019-01-11T03:53:37.575Z,17.39
2019-01-11T03:54:38.068Z,17.4
2019-01-11T03:55:38.098Z,17.38
2019-01-11T03:56:38.198Z,17.38
2019-01-11T03:57:37.630Z,17.39
2019-01-11T03:58:37.797Z,17.36
2019-01-11T03:59:37.975Z,17.33
2019-01-11T04:00:38.902Z,17.35
2019-01-11T04:01:37.786Z,17.36
2019-01-11T04:02:38.136Z,17.36
2019-01-11T04:03:37.665Z,17.36
2019-01-11T04:04:37.707Z,17.36
2019-01-11T04:05:38.147Z,17.35
2019-01-11T04:06:37.964Z,17.35
2019-01-11T04:07:37.798Z,17.33
2019-01-11T04:08:37.681Z,17.33
2019-01-11T04:09:37.860Z,17.33
2019-01-11T04:10:37.525Z,17.33
2019-01-11T04:11:38.306Z,17.33
2019-01-11T04:12:38.258Z,17.35
2019-01-11T04:13:39.477Z,17.31
2019-01-11T04:14:37.707Z,17.33
2019-01-11T04:15:37.885Z,17.33
2019-01-11T04:16:38.922Z,17.32
2019-01-11T04:17:37.899Z,17.33
2019-01-11T04:18:38.043Z,17.32
2019-01-11T04:19:38.137Z,17.32
2019-01-11T04:20:37.627Z,17.32
2019-01-11T04:21:37.874Z,17.32
2019-01-11T04:22:38.010Z,17.33
2019-01-11T04:23:37.872Z,17.32
2019-01-11T04:24:37.654Z,17.29
2019-01-11T04:25:37.617Z,17.32
2019-01-11T04:26:37.786Z,17.31
2019-01-11T04:27:37.730Z,17.31
2019-01-11T04:28:37.440Z,17.31
2019-01-11T04:29:37.797Z,17.32
2019-01-11T04:30:37.983Z,17.31
2019-01-11T04:31:37.896Z,17.31
2019-01-11T04:32:37.679Z,17.28
2019-01-11T04:33:37.681Z,17.31
2019-01-11T04:34:37.963Z,17.28
2019-01-11T04:35:38.072Z,17.28
2019-01-11T04:36:37.752Z,17.31
2019-01-11T04:37:37.731Z,17.31
2019-01-11T04:38:37.778Z,17.28
2019-01-11T04:39:37.736Z,17.28
2019-01-11T04:40:38.092Z,17.28
2019-01-11T04:41:38.191Z,17.26
2019-01-11T04:42:37.739Z,17.28
2019-01-11T04:43:38.007Z,17.26
2019-01-11T04:44:38.631Z,17.31
2019-01-11T04:45:38.237Z,17.31
2019-01-11T04:46:38.125Z,17.29
2019-01-11T04:47:37.987Z,17.32
2019-01-11T04:48:37.584Z,17.31
2019-01-11T04:49:37.715Z,17.32
2019-01-11T04:50:38.291Z,17.32
2019-01-11T04:51:38.069Z,17.32
2019-01-11T04:52:37.688Z,17.35
2019-01-11T04:53:37.872Z,17.35
2019-01-11T04:54:37.500Z,17.33
2019-01-11T04:55:37.760Z,17.36
2019-01-11T04:56:37.882Z,17.36
2019-01-11T04:57:38.329Z,17.39
2019-01-11T04:58:37.733Z,17.42
2019-01-11T04:59:38.390Z,17.42
2019-01-11T05:00:37.977Z,17.46
2019-01-11T05:01:37.706Z,17.46
2019-01-11T05:02:37.647Z,17.45
2019-01-11T05:03:37.803Z,17.46
2019-01-11T05:04:37.915Z,17.5
2019-01-11T05:05:37.665Z,17.5
2019-01-11T05:06:38.023Z,17.53
2019-01-11T05:07:38.015Z,17.57
2019-01-11T05:08:37.870Z,17.59
2019-01-11T05:09:37.797Z,17.6
2019-01-11T05:10:37.640Z,17.61
2019-01-11T05:11:37.711Z,17.61
2019-01-11T05:12:37.615Z,17.64
2019-01-11T05:13:37.534Z,17.66
2019-01-11T05:14:38.258Z,17.68
2019-01-11T05:15:37.743Z,17.71
2019-01-11T05:16:40.106Z,17.7
2019-01-11T05:17:38.476Z,17.73
2019-01-11T05:18:37.531Z,17.74
2019-01-11T05:19:37.935Z,17.77
2019-01-11T05:20:37.443Z,17.78
2019-01-11T05:21:37.456Z,17.81
2019-01-11T05:22:37.901Z,17.84
2019-01-11T05:23:37.739Z,17.87
2019-01-11T05:24:37.635Z,17.87
2019-01-11T05:25:37.678Z,17.89
2019-01-11T05:26:37.588Z,17.93
2019-01-11T05:27:37.769Z,17.94
2019-01-11T05:28:37.704Z,17.94
2019-01-11T05:29:37.839Z,17.97
2019-01-11T05:30:37.766Z,17.98
2019-01-11T05:31:39.535Z,18.01
2019-01-11T05:32:37.417Z,18
2019-01-11T05:33:37.936Z,18.01
2019-01-11T05:34:37.895Z,18.05
2019-01-11T05:35:37.605Z,18.05
2019-01-11T05:36:38.025Z,18.08
2019-01-11T05:37:38.022Z,18.09
2019-01-11T05:38:37.464Z,18.12
2019-01-11T05:39:37.823Z,18.13
2019-01-11T05:40:37.685Z,18.16
2019-01-11T05:41:37.736Z,18.15
2019-01-11T05:42:38.044Z,18.15
2019-01-11T05:43:37.853Z,18.19
2019-01-11T05:44:37.964Z,18.19
2019-01-11T05:45:37.768Z,18.21
2019-01-11T05:46:37.628Z,18.23
2019-01-11T05:47:38.409Z,18.23
2019-01-11T05:48:37.955Z,18.26
2019-01-11T05:49:37.741Z,18.28
2019-01-11T05:50:38.259Z,18.29
2019-01-11T05:51:38.440Z,18.29
2019-01-11T05:52:37.903Z,18.3
2019-01-11T05:53:37.894Z,18.33
2019-01-11T05:54:37.911Z,18.33
2019-01-11T05:55:37.853Z,18.33
2019-01-11T05:56:37.962Z,18.37
2019-01-11T05:57:38.168Z,18.36
2019-01-11T05:58:37.595Z,18.37
2019-01-11T05:59:37.849Z,18.41
2019-01-11T06:00:37.518Z,18.41
2019-01-11T06:01:38.346Z,18.41
2019-01-11T06:02:39.470Z,18.44
2019-01-11T06:03:38.214Z,18.44
2019-01-11T06:04:39.109Z,18.46
2019-01-11T06:05:38.040Z,18.46
2019-01-11T06:06:37.733Z,18.5
2019-01-11T06:07:37.404Z,18.5
2019-01-11T06:08:37.945Z,18.54
2019-01-11T06:09:38.112Z,18.53
2019-01-11T06:10:37.664Z,18.54
2019-01-11T06:11:37.691Z,18.54
2019-01-11T06:12:37.524Z,18.54
2019-01-11T06:13:37.827Z,18.57
2019-01-11T06:14:37.711Z,18.57
2019-01-11T06:15:38.616Z,18.57
2019-01-11T06:16:37.748Z,18.62
2019-01-11T06:17:37.746Z,18.62
2019-01-11T06:18:37.786Z,18.63
2019-01-11T06:19:37.701Z,18.64
2019-01-11T06:20:37.690Z,18.63
2019-01-11T06:21:37.735Z,18.64
2019-01-11T06:22:37.760Z,18.66
2019-01-11T06:23:37.741Z,18.7
2019-01-11T06:24:37.743Z,18.68
2019-01-11T06:25:37.758Z,18.68
2019-01-11T06:26:37.546Z,18.7
2019-01-11T06:27:38.345Z,18.7
2019-01-11T06:28:37.747Z,18.73
2019-01-11T06:29:37.519Z,18.74
2019-01-11T06:30:37.916Z,18.74
2019-01-11T06:31:37.996Z,18.74
2019-01-11T06:32:38.094Z,18.77
2019-01-11T06:33:39.126Z,18.78
2019-01-11T06:34:37.352Z,18.8
2019-01-11T06:35:38.022Z,18.78
2019-01-11T06:36:37.712Z,18.81
2019-01-11T06:37:37.814Z,18.81
2019-01-11T06:38:37.656Z,18.85
2019-01-11T06:39:37.361Z,18.87
2019-01-11T06:40:37.941Z,18.88
2019-01-11T06:41:37.553Z,18.9
2019-01-11T06:42:37.773Z,18.9
2019-01-11T06:43:37.723Z,18.9
2019-01-11T06:44:39.336Z,18.92
2019-01-11T06:45:37.889Z,18.94
2019-01-11T06:46:38.299Z,18.95
2019-01-11T06:47:39.511Z,18.97
2019-01-11T06:48:37.461Z,18.98
2019-01-11T06:49:37.603Z,18.98
2019-01-11T06:50:37.850Z,18.98
2019-01-11T06:51:38.070Z,19.02
2019-01-11T06:52:37.660Z,19.02
2019-01-11T06:53:37.922Z,19.03
2019-01-11T06:54:38.135Z,19.08
2019-01-11T06:55:38.046Z,19.06
2019-01-11T06:56:39.348Z,19.09
2019-01-11T06:57:37.722Z,19.08
2019-01-11T06:58:37.782Z,19.09
2019-01-11T06:59:37.584Z,19.09
2019-01-11T07:00:37.476Z,19.11
2019-01-11T07:01:37.691Z,19.12
2019-01-11T07:02:37.862Z,19.15
2019-01-11T07:03:38.012Z,19.15
2019-01-11T07:04:37.584Z,19.13
2019-01-11T07:05:37.863Z,19.13
2019-01-11T07:06:37.981Z,19.16
2019-01-11T07:07:37.427Z,19.15
2019-01-11T07:08:37.922Z,19.18
2019-01-11T07:09:38.062Z,19.18
2019-01-11T07:10:37.576Z,19.2
2019-01-11T07:11:37.921Z,19.2
2019-01-11T07:12:37.399Z,19.2
2019-01-11T07:13:37.635Z,19.2
2019-01-11T07:14:38.481Z,19.19
2019-01-11T07:15:37.799Z,19.22
2019-01-11T07:16:37.456Z,19.2
2019-01-11T07:17:37.880Z,19.22
2019-01-11T07:18:37.713Z,19.2
2019-01-11T07:19:37.772Z,19.22
2019-01-11T07:20:44.750Z,19.22
2019-01-11T07:21:37.843Z,19.23
2019-01-11T07:22:38.162Z,19.23
2019-01-11T07:23:37.669Z,19.25
2019-01-11T07:24:37.850Z,19.25
2019-01-11T07:25:37.932Z,19.26
2019-01-11T07:26:37.413Z,19.25
2019-01-11T07:27:37.708Z,19.26
2019-01-11T07:28:37.883Z,19.26
2019-01-11T07:29:38.048Z,19.29
2019-01-11T07:30:37.908Z,19.26
2019-01-11T07:31:37.997Z,19.29
2019-01-11T07:32:37.747Z,19.27
2019-01-11T07:33:37.468Z,19.29
2019-01-11T07:34:38.292Z,19.29
2019-01-11T07:35:37.712Z,19.27
2019-01-11T07:36:38.028Z,19.29
2019-01-11T07:37:39.362Z,19.29
2019-01-11T07:38:37.454Z,19.29
2019-01-11T07:39:39.555Z,19.29
2019-01-11T07:40:37.552Z,19.29
2019-01-11T07:41:38.515Z,19.3
2019-01-11T07:42:37.855Z,19.3
2019-01-11T07:43:37.899Z,19.3
2019-01-11T07:44:37.699Z,19.33
2019-01-11T07:45:37.340Z,19.3
2019-01-11T07:46:37.915Z,19.3
2019-01-11T07:47:38.013Z,19.32
2019-01-11T07:48:37.362Z,19.29
2019-01-11T07:49:37.909Z,19.3
2019-01-11T07:50:38.047Z,19.29
2019-01-11T07:51:37.846Z,19.3
2019-01-11T07:52:40.501Z,19.29
2019-01-11T07:53:37.738Z,19.32
2019-01-11T07:54:37.744Z,19.32
2019-01-11T07:55:37.869Z,19.32
2019-01-11T07:56:37.712Z,19.33
2019-01-11T07:57:37.428Z,19.32
2019-01-11T07:58:37.867Z,19.3
2019-01-11T07:59:37.784Z,19.33
2019-01-11T08:00:37.688Z,19.33
2019-01-11T08:01:37.788Z,19.33
2019-01-11T08:02:37.502Z,19.35
2019-01-11T08:03:37.471Z,19.35
2019-01-11T08:04:37.929Z,19.36
2019-01-11T08:05:37.797Z,19.32
2019-01-11T08:06:38.005Z,19.32
2019-01-11T08:07:37.782Z,19.33
2019-01-11T08:08:37.476Z,19.3
2019-01-11T08:09:37.675Z,19.33
2019-01-11T08:10:37.335Z,19.33
2019-01-11T08:11:38.003Z,19.35
2019-01-11T08:12:37.840Z,19.35
2019-01-11T08:13:37.920Z,19.33
2019-01-11T08:14:37.541Z,19.36
2019-01-11T08:15:37.688Z,19.36
2019-01-11T08:16:37.887Z,19.35
2019-01-11T08:17:37.590Z,19.35
2019-01-11T08:18:38.664Z,19.37
2019-01-11T08:19:37.497Z,19.35
2019-01-11T08:20:37.484Z,19.36
2019-01-11T08:21:37.945Z,19.42
2019-01-11T08:22:37.405Z,19.4
2019-01-11T08:23:37.927Z,19.4
2019-01-11T08:24:37.753Z,19.4
2019-01-11T08:25:37.768Z,19.4
2019-01-11T08:26:37.995Z,19.45
2019-01-11T08:27:37.475Z,19.42
2019-01-11T08:28:37.424Z,19.45
2019-01-11T08:29:38.100Z,19.47
2019-01-11T08:30:38.022Z,19.47
2019-01-11T08:31:37.830Z,19.49
2019-01-11T08:32:37.708Z,19.49
2019-01-11T08:33:37.840Z,19.46
2019-01-11T08:34:37.856Z,19.46
2019-01-11T08:35:38.033Z,19.47
2019-01-11T08:36:37.576Z,19.5
2019-01-11T08:37:38.508Z,19.52
2019-01-11T08:38:37.897Z,19.53
2019-01-11T08:39:38.538Z,19.5
2019-01-11T08:40:38.324Z,19.5
2019-01-11T08:41:37.532Z,19.52
2019-01-11T08:42:38.015Z,19.53
2019-01-11T08:43:37.418Z,19.52
2019-01-11T08:44:37.554Z,19.54
2019-01-11T08:45:38.472Z,19.56
2019-01-11T08:46:37.709Z,19.57
2019-01-11T08:47:38.056Z,19.56
2019-01-11T08:48:38.078Z,19.57
2019-01-11T08:49:39.378Z,19.56
2019-01-11T08:50:37.860Z,19.54
2019-01-11T08:51:37.842Z,19.57
2019-01-11T08:52:38.176Z,19.52
2019-01-11T08:53:38.183Z,19.54
2019-01-11T08:54:37.515Z,19.57
2019-01-11T08:55:37.883Z,19.54
2019-01-11T08:56:38.025Z,19.57
2019-01-11T08:57:37.366Z,19.53
2019-01-11T08:58:37.952Z,19.5
2019-01-11T08:59:37.382Z,19.53
2019-01-11T09:00:37.563Z,19.54
2019-01-11T09:01:37.835Z,19.52
2019-01-11T09:02:37.816Z,19.53
2019-01-11T09:03:37.744Z,19.52
2019-01-11T09:04:37.912Z,19.52
2019-01-11T09:05:37.466Z,19.53
2019-01-11T09:06:37.966Z,19.49
2019-01-11T09:07:37.488Z,19.5
2019-01-11T09:08:37.783Z,19.49
2019-01-11T09:09:37.944Z,19.52
2019-01-11T09:10:37.395Z,19.49
2019-01-11T09:11:37.796Z,19.47
2019-01-11T09:12:37.424Z,19.46
2019-01-11T09:13:37.548Z,19.47
2019-01-11T09:14:37.595Z,19.46
2019-01-11T09:15:37.800Z,19.46
2019-01-11T09:16:37.822Z,19.45
2019-01-11T09:17:38.332Z,19.45
2019-01-11T09:18:37.620Z,19.45
2019-01-11T09:19:37.939Z,19.45
2019-01-11T09:20:37.729Z,19.45
2019-01-11T09:21:42.167Z,19.45
2019-01-11T09:22:37.743Z,19.42
2019-01-11T09:23:39.525Z,19.43
2019-01-11T09:24:37.405Z,19.42
2019-01-11T09:25:37.905Z,19.4
2019-01-11T09:26:37.696Z,19.42
2019-01-11T09:27:37.772Z,19.39
2019-01-11T09:28:37.535Z,19.39
2019-01-11T09:29:37.448Z,19.37
2019-01-11T09:30:37.456Z,19.42
2019-01-11T09:31:39.480Z,19.4
2019-01-11T09:32:38.251Z,19.39
2019-01-11T09:33:38.206Z,19.37
2019-01-11T09:34:37.444Z,19.37
2019-01-11T09:35:37.964Z,19.37
2019-01-11T09:36:37.562Z,19.36
2019-01-11T09:37:37.762Z,19.39
2019-01-11T09:38:37.807Z,19.35
2019-01-11T09:39:37.648Z,19.35
2019-01-11T09:40:37.405Z,19.35
2019-01-11T09:41:37.899Z,19.33
2019-01-11T09:42:37.437Z,19.33
2019-01-11T09:43:37.898Z,19.3
2019-01-11T09:44:37.829Z,19.32
2019-01-11T09:45:37.474Z,19.3
2019-01-11T09:46:37.830Z,19.3
2019-01-11T09:47:37.859Z,19.3
2019-01-11T09:48:37.765Z,19.32
2019-01-11T09:49:37.753Z,19.32
2019-01-11T09:50:37.863Z,19.27
2019-01-11T09:51:37.582Z,19.3
2019-01-11T09:52:37.870Z,19.29
2019-01-11T09:53:37.412Z,19.29
2019-01-11T09:54:37.991Z,19.26
2019-01-11T09:55:37.922Z,19.27
2019-01-11T09:56:37.451Z,19.29
2019-01-11T09:57:38.075Z,19.3
2019-01-11T09:58:37.465Z,19.29
2019-01-11T09:59:37.839Z,19.3
2019-01-11T10:00:37.866Z,19.3
2019-01-11T10:01:38.272Z,19.3
2019-01-11T10:02:38.859Z,19.32
2019-01-11T10:03:37.868Z,19.35
2019-01-11T10:04:37.665Z,19.33
2019-01-11T10:05:37.888Z,19.35
2019-01-11T10:06:37.363Z,19.35
2019-01-11T10:07:37.914Z,19.35
2019-01-11T10:08:38.002Z,19.35
2019-01-11T10:09:37.620Z,19.37
2019-01-11T10:10:37.835Z,19.36
2019-01-11T10:11:37.228Z,19.37
2019-01-11T10:12:37.706Z,19.39
2019-01-11T10:13:37.937Z,19.4
2019-01-11T10:14:37.757Z,19.4
2019-01-11T10:15:37.623Z,19.42
2019-01-11T10:16:37.398Z,19.42
2019-01-11T10:17:37.828Z,19.43
2019-01-11T10:18:37.784Z,19.42
2019-01-11T10:19:37.735Z,19.43
2019-01-11T10:20:37.804Z,19.45
2019-01-11T10:21:37.853Z,19.46
2019-01-11T10:22:37.531Z,19.47
2019-01-11T10:23:37.884Z,19.52
2019-01-11T10:24:37.469Z,19.5
2019-01-11T10:25:37.456Z,19.54
2019-01-11T10:26:37.635Z,19.54
2019-01-11T10:27:37.454Z,19.53
2019-01-11T10:28:38.351Z,19.54
2019-01-11T10:29:37.966Z,19.56
2019-01-11T10:30:39.320Z,19.57
2019-01-11T10:31:37.534Z,19.6
2019-01-11T10:32:37.402Z,19.61
2019-01-11T10:33:37.752Z,19.61
2019-01-11T10:34:37.972Z,19.63
2019-01-11T10:35:37.882Z,19.6
2019-01-11T10:36:37.579Z,19.64
2019-01-11T10:37:37.795Z,19.61
2019-01-11T10:38:37.607Z,19.6
2019-01-11T10:39:37.791Z,19.64
2019-01-11T10:40:37.802Z,19.64
2019-01-11T10:41:37.877Z,19.64
2019-01-11T10:42:39.903Z,19.65
2019-01-11T10:43:39.344Z,19.67
2019-01-11T10:44:37.728Z,19.65
2019-01-11T10:45:37.488Z,19.67
2019-01-11T10:46:37.450Z,19.67
2019-01-11T10:47:37.871Z,19.65
2019-01-11T10:48:37.792Z,19.68
2019-01-11T10:49:37.752Z,19.68
2019-01-11T10:50:38.048Z,19.7
2019-01-11T10:51:38.232Z,19.7
2019-01-11T10:52:37.452Z,19.71
2019-01-11T10:53:37.243Z,19.7
2019-01-11T10:54:37.916Z,19.68
2019-01-11T10:55:37.738Z,19.7
2019-01-11T10:56:37.546Z,19.68
2019-01-11T10:57:37.509Z,19.71
2019-01-11T10:58:37.491Z,19.7
2019-01-11T10:59:37.589Z,19.7
2019-01-11T11:00:37.570Z,19.73
2019-01-11T11:01:37.398Z,19.71
2019-01-11T11:02:37.520Z,19.73
2019-01-11T11:03:39.484Z,19.7
2019-01-11T11:04:37.372Z,19.7
2019-01-11T11:05:37.364Z,19.7
2019-01-11T11:06:37.532Z,19.73
2019-01-11T11:07:37.810Z,19.71
2019-01-11T11:08:37.720Z,19.74
2019-01-11T11:09:37.634Z,19.71
2019-01-11T11:10:37.447Z,19.73
2019-01-11T11:11:37.777Z,19.73
2019-01-11T11:12:37.256Z,19.74
2019-01-11T11:13:37.911Z,19.71
2019-01-11T11:14:37.853Z,19.74
2019-01-11T11:15:37.758Z,19.75
2019-01-11T11:16:37.776Z,19.75
2019-01-11T11:17:38.253Z,19.74
2019-01-11T11:18:37.514Z,19.77
2019-01-11T11:19:37.523Z,19.73
2019-01-11T11:20:38.346Z,19.73
2019-01-11T11:21:37.700Z,19.75
2019-01-11T11:22:37.950Z,19.75
2019-01-11T11:23:37.445Z,19.77
2019-01-11T11:24:37.836Z,19.77
2019-01-11T11:25:37.778Z,19.77
2019-01-11T11:26:37.637Z,19.75
2019-01-11T11:27:37.484Z,19.75
2019-01-11T11:28:37.874Z,19.74
2019-01-11T11:29:37.667Z,19.77
2019-01-11T11:30:37.910Z,19.75
2019-01-11T11:31:37.250Z,19.74
2019-01-11T11:32:37.775Z,19.77
2019-01-11T11:33:37.805Z,19.74
2019-01-11T11:34:37.247Z,19.74
2019-01-11T11:35:37.475Z,19.74
2019-01-11T11:36:37.847Z,19.75
2019-01-11T11:37:37.438Z,19.77
2019-01-11T11:38:37.830Z,19.74
2019-01-11T11:39:37.423Z,19.77
2019-01-11T11:40:37.509Z,19.77
2019-01-11T11:41:37.970Z,19.74
2019-01-11T11:42:37.434Z,19.75
2019-01-11T11:43:37.536Z,19.74
2019-01-11T11:44:37.258Z,19.75
2019-01-11T11:45:37.761Z,19.74
2019-01-11T11:46:37.683Z,19.73
2019-01-11T11:47:37.790Z,19.74
2019-01-11T11:48:38.192Z,19.75
2019-01-11T11:49:37.433Z,19.74
2019-01-11T11:50:37.491Z,19.71
2019-01-11T11:51:41.826Z,19.74
2019-01-11T11:52:38.248Z,19.7
2019-01-11T11:53:38.315Z,19.7
2019-01-11T11:54:37.575Z,19.68
2019-01-11T11:55:37.495Z,19.68
2019-01-11T11:56:37.752Z,19.65
2019-01-11T11:57:37.678Z,19.65
2019-01-11T11:58:37.814Z,19.67
2019-01-11T11:59:37.838Z,19.64
2019-01-11T12:00:37.959Z,19.65
2019-01-11T12:01:38.441Z,19.64
2019-01-11T12:02:38.411Z,19.64
2019-01-11T12:03:38.065Z,19.64
2019-01-11T12:04:37.704Z,19.63
2019-01-11T12:05:37.567Z,19.63
2019-01-11T12:06:37.547Z,19.61
2019-01-11T12:07:37.937Z,19.63
2019-01-11T12:08:37.979Z,19.61
2019-01-11T12:09:37.897Z,19.6
2019-01-11T12:10:37.746Z,19.61
2019-01-11T12:11:37.488Z,19.58
2019-01-11T12:12:38.104Z,19.6
2019-01-11T12:13:37.783Z,19.61
2019-01-11T12:14:37.431Z,19.58
2019-01-11T12:15:37.921Z,19.58
2019-01-11T12:16:37.481Z,19.57
2019-01-11T12:17:37.875Z,19.57
2019-01-11T12:18:37.794Z,19.61
2019-01-11T12:19:37.573Z,19.58
2019-01-11T12:20:37.417Z,19.58
2019-01-11T12:21:37.385Z,19.58
2019-01-11T12:22:37.526Z,19.6
2019-01-11T12:23:37.372Z,19.56
2019-01-11T12:24:37.532Z,19.57
2019-01-11T12:25:37.512Z,19.56
2019-01-11T12:26:37.446Z,19.54
2019-01-11T12:27:37.552Z,19.56
2019-01-11T12:28:37.659Z,19.54
2019-01-11T12:29:37.473Z,19.54
2019-01-11T12:30:37.828Z,19.53
2019-01-11T12:31:37.247Z,19.52
2019-01-11T12:32:38.133Z,19.53
2019-01-11T12:33:37.456Z,19.53
2019-01-11T12:34:37.392Z,19.54
2019-01-11T12:35:37.820Z,19.52
2019-01-11T12:36:37.576Z,19.5
2019-01-11T12:37:37.472Z,19.52
2019-01-11T12:38:38.587Z,19.52
2019-01-11T12:39:37.423Z,19.49
2019-01-11T12:40:37.848Z,19.49
2019-01-11T12:41:38.219Z,19.52
2019-01-11T12:42:37.355Z,19.52
2019-01-11T12:43:37.805Z,19.52
2019-01-11T12:44:37.637Z,19.5
2019-01-11T12:45:37.826Z,19.47
2019-01-11T12:46:37.785Z,19.49
2019-01-11T12:47:37.306Z,19.52
2019-01-11T12:48:37.467Z,19.5
2019-01-11T12:49:37.604Z,19.46
2019-01-11T12:50:38.198Z,19.49
2019-01-11T12:51:37.967Z,19.47
2019-01-11T12:52:37.938Z,19.5
2019-01-11T12:53:37.523Z,19.49
2019-01-11T12:54:38.045Z,19.47
2019-01-11T12:55:38.197Z,19.5
2019-01-11T12:56:37.878Z,19.49